createdAt,value
2023-05-19T00:00:31.964Z,18.08
2023-05-19T00:05:35.387Z,17.95
2023-05-19T00:08:11.409Z,20.45
2023-05-19T00:10:41.890Z,18.52
2023-05-19T00:13:12.481Z,18.40
2023-05-19T00:15:42.870Z,26.52
2023-05-19T00:18:15.073Z,28.50
2023-05-19T00:20:45.404Z,34.75
2023-05-19T00:23:15.817Z,31.05
2023-05-19T00:25:45.737Z,25.95
2023-05-19T00:28:16.376Z,23.90
2023-05-19T00:30:46.512Z,24.92
2023-05-19T00:33:17.123Z,23.38
2023-05-19T00:35:47.386Z,21.85
2023-05-19T00:38:17.868Z,19.60
2023-05-19T00:40:50.951Z,24.90
2023-05-19T00:43:21.484Z,24.98
2023-05-19T00:45:52.060Z,24.13
2023-05-19T00:48:23.019Z,22.38
2023-05-19T00:51:05.249Z,24.67
2023-05-19T00:53:37.013Z,24.10
2023-05-19T00:56:07.239Z,23.33
2023-05-19T00:58:38.358Z,22.02
2023-05-19T01:01:15.544Z,19.30
2023-05-19T01:03:46.414Z,16.60
2023-05-19T01:06:20.441Z,13.50
2023-05-19T01:08:59.303Z,15.88
2023-05-19T01:11:32.010Z,13.40
2023-05-19T01:14:02.151Z,15.10
2023-05-19T01:17:06.569Z,16.77
2023-05-19T01:19:51.915Z,14.98
2023-05-19T01:22:50.816Z,19.05
2023-05-19T01:26:02.029Z,19.40
2023-05-19T01:28:54.826Z,19.63
2023-05-19T01:31:29.866Z,21.02
2023-05-19T01:34:01.476Z,20.08
2023-05-19T01:36:33.301Z,17.50
2023-05-19T01:39:04.472Z,19.55
2023-05-19T01:41:38.518Z,17.35
2023-05-19T01:44:12.293Z,20.50
2023-05-19T01:46:46.101Z,24.33
2023-05-19T01:49:16.773Z,26.85
2023-05-19T01:51:50.577Z,22.17
2023-05-19T01:54:21.176Z,19.23
2023-05-19T01:57:05.824Z,18.13
2023-05-19T01:59:45.565Z,22.38
2023-05-19T02:02:57.298Z,26.13
2023-05-19T02:06:00.460Z,23.17
2023-05-19T02:08:52.133Z,25.35
2023-05-19T02:11:52.715Z,25.13
2023-05-19T02:14:32.563Z,26.08
2023-05-19T02:17:03.737Z,27.02
2023-05-19T02:19:37.626Z,27.20
2023-05-19T02:22:08.731Z,27.77
2023-05-19T02:24:38.918Z,26.15
2023-05-19T02:27:09.312Z,24.20
2023-05-19T02:29:39.257Z,21.80
2023-05-19T02:32:10.108Z,20.77
2023-05-19T02:34:40.152Z,22.35
2023-05-19T02:37:10.512Z,26.50
2023-05-19T02:39:41.462Z,22.23
2023-05-19T02:42:12.009Z,31.38
2023-05-19T02:44:42.355Z,28.83
2023-05-19T02:47:12.438Z,29.58
2023-05-19T02:49:44.229Z,27.85
2023-05-19T02:52:14.274Z,27.73
2023-05-19T02:54:44.448Z,28.60
2023-05-19T02:57:14.797Z,26.27
2023-05-19T02:59:44.880Z,26.33
2023-05-19T03:02:15.276Z,24.55
2023-05-19T03:04:45.127Z,21.70
2023-05-19T03:07:16.756Z,18.38
2023-05-19T03:09:46.736Z,18.10
2023-05-19T03:12:17.186Z,23.33
2023-05-19T03:14:47.488Z,20.45
2023-05-19T03:17:17.915Z,19.88
2023-05-19T03:19:47.997Z,18.88
2023-05-19T03:22:19.859Z,25.60
2023-05-19T03:24:52.202Z,26.08
2023-05-19T03:27:23.538Z,22.02
2023-05-19T03:29:54.990Z,18.85
2023-05-19T03:32:26.855Z,22.98
2023-05-19T03:34:56.898Z,20.13
2023-05-19T03:37:28.184Z,26.25
2023-05-19T03:39:58.687Z,19.42
2023-05-19T03:42:29.177Z,22.58
2023-05-19T03:44:59.283Z,17.92
2023-05-19T03:47:29.797Z,18.10
2023-05-19T03:50:25.818Z,17.50
2023-05-19T03:53:02.852Z,18.42
2023-05-19T03:55:41.108Z,21.25
2023-05-19T03:58:11.901Z,14.95
2023-05-19T04:00:42.687Z,13.63
2023-05-19T04:03:13.305Z,13.43
2023-05-19T04:05:43.445Z,11.25
2023-05-19T04:08:14.183Z,14.30
2023-05-19T04:10:45.375Z,12.77
2023-05-19T04:13:17.123Z,13.93
2023-05-19T04:15:47.606Z,14.40
2023-05-19T04:18:17.580Z,17.45
2023-05-19T04:20:47.946Z,15.90
2023-05-19T04:23:18.062Z,16.65
2023-05-19T04:25:49.929Z,16.65
2023-05-19T04:28:20.006Z,17.08
2023-05-19T04:30:51.916Z,18.27
2023-05-19T04:33:22.653Z,18.80
2023-05-19T04:35:53.127Z,19.10
2023-05-19T04:38:23.258Z,17.98
2023-05-19T04:40:54.213Z,17.00
2023-05-19T04:43:24.230Z,17.75
2023-05-19T04:45:54.855Z,19.13
2023-05-19T04:48:25.352Z,14.82
2023-05-19T04:50:55.838Z,14.95
2023-05-19T04:53:26.863Z,15.73
2023-05-19T04:56:02.072Z,15.30
2023-05-19T04:58:34.445Z,16.80
2023-05-19T05:01:05.200Z,18.05
2023-05-19T05:03:35.778Z,13.60
2023-05-19T05:06:06.457Z,15.88
2023-05-19T05:08:36.682Z,11.05
2023-05-19T05:11:07.744Z,10.70
2023-05-19T05:13:38.290Z,10.68
2023-05-19T05:16:09.590Z,13.25
2023-05-19T05:18:41.164Z,14.73
2023-05-19T05:21:13.851Z,16.20
2023-05-19T05:23:44.343Z,17.05
2023-05-19T05:26:25.682Z,19.90
2023-05-19T05:28:58.325Z,28.95
2023-05-19T05:31:30.843Z,28.48
2023-05-19T05:34:01.809Z,17.05
2023-05-19T05:36:36.133Z,22.58
2023-05-19T05:39:06.810Z,19.38
2023-05-19T05:41:38.307Z,22.10
2023-05-19T05:44:14.235Z,27.85
2023-05-19T05:46:47.236Z,21.98
2023-05-19T05:49:17.607Z,25.33
2023-05-19T05:52:05.014Z,23.88
2023-05-19T05:54:41.277Z,28.05
2023-05-19T05:57:12.541Z,25.42
2023-05-19T05:59:43.260Z,28.27
2023-05-19T06:02:14.502Z,29.17
2023-05-19T06:04:45.233Z,22.95
2023-05-19T06:07:15.664Z,21.88
2023-05-19T06:09:47.590Z,22.10
2023-05-19T06:12:18.393Z,21.98
2023-05-19T06:14:56.182Z,13.48
2023-05-19T06:17:45.378Z,10.20
2023-05-19T06:20:15.981Z,11.95
2023-05-19T06:22:46.716Z,11.35
2023-05-19T06:25:19.211Z,11.32
2023-05-19T06:27:50.205Z,15.27
2023-05-19T06:30:20.221Z,18.92
2023-05-19T06:33:10.657Z,19.52
2023-05-19T06:35:40.797Z,13.98
2023-05-19T06:38:11.297Z,17.33
2023-05-19T06:40:41.918Z,13.20
2023-05-19T06:43:12.521Z,10.93
2023-05-19T06:46:05.474Z,9.30
2023-05-19T06:48:36.569Z,8.27
2023-05-19T06:51:07.028Z,10.95
2023-05-19T06:53:37.773Z,11.70
2023-05-19T06:56:11.223Z,16.98
2023-05-19T06:58:42.722Z,17.65
2023-05-19T07:01:13.765Z,19.75
2023-05-19T07:03:49.259Z,20.50
2023-05-19T07:06:19.323Z,19.90
2023-05-19T07:08:49.696Z,21.27
2023-05-19T07:11:21.367Z,19.15
2023-05-19T07:13:52.654Z,20.27
2023-05-19T07:16:28.608Z,24.25
2023-05-19T07:18:59.135Z,21.50
2023-05-19T07:21:29.164Z,20.23
2023-05-19T07:23:59.776Z,19.23
2023-05-19T07:26:31.306Z,17.00
2023-05-19T07:29:01.927Z,12.95
2023-05-19T07:31:32.320Z,11.55
2023-05-19T07:34:02.762Z,12.85
2023-05-19T07:36:32.889Z,14.38
2023-05-19T07:39:03.405Z,17.15
2023-05-19T07:41:34.361Z,16.23
2023-05-19T07:44:08.726Z,17.52
2023-05-19T07:46:39.270Z,19.15
2023-05-19T07:49:09.731Z,16.70
2023-05-19T07:51:39.736Z,31.35
2023-05-19T07:54:10.130Z,23.92
2023-05-19T07:56:40.128Z,21.23
2023-05-19T07:59:10.753Z,13.10
2023-05-19T08:01:40.805Z,13.13
2023-05-19T08:04:13.751Z,12.32
2023-05-19T08:06:45.475Z,12.30
2023-05-19T08:09:15.809Z,12.65
2023-05-19T08:11:46.070Z,14.65
2023-05-19T08:14:16.429Z,17.48
2023-05-19T08:16:47.519Z,16.70
2023-05-19T08:19:17.947Z,17.05
2023-05-19T08:21:49.478Z,14.68
2023-05-19T08:24:19.868Z,20.63
2023-05-19T08:26:49.817Z,29.50
2023-05-19T08:29:22.692Z,17.80
2023-05-19T08:31:54.214Z,21.08
2023-05-19T08:34:27.027Z,23.63
2023-05-19T08:37:01.803Z,20.13
2023-05-19T08:39:34.321Z,21.23
2023-05-19T08:42:04.567Z,17.40
2023-05-19T08:44:41.135Z,14.82
2023-05-19T08:47:15.047Z,16.50
2023-05-19T08:49:47.419Z,21.65
2023-05-19T08:52:17.540Z,20.48
2023-05-19T08:55:07.219Z,16.90
2023-05-19T08:57:38.493Z,15.50
2023-05-19T09:00:15.352Z,16.92
2023-05-19T09:02:55.453Z,16.55
2023-05-19T09:05:37.036Z,14.95
2023-05-19T09:08:09.953Z,19.23
2023-05-19T09:10:40.408Z,13.93
2023-05-19T09:13:10.909Z,17.08
2023-05-19T09:15:44.059Z,14.18
2023-05-19T09:18:18.629Z,13.73
2023-05-19T09:20:49.223Z,14.68
2023-05-19T09:23:19.894Z,14.88
2023-05-19T09:25:51.195Z,16.35
2023-05-19T09:28:29.253Z,16.63
2023-05-19T09:31:03.062Z,14.88
2023-05-19T09:33:35.765Z,16.90
2023-05-19T09:36:10.099Z,17.77
2023-05-19T09:38:41.743Z,17.73
2023-05-19T09:41:15.814Z,16.45
2023-05-19T09:43:55.631Z,17.48
2023-05-19T09:46:29.542Z,21.45
2023-05-19T09:49:00.014Z,19.45
2023-05-19T09:51:30.718Z,19.83
2023-05-19T09:54:00.881Z,17.55
2023-05-19T09:56:36.019Z,17.63
2023-05-19T09:59:06.520Z,17.30
2023-05-19T10:01:38.569Z,17.00
2023-05-19T10:04:09.676Z,23.08
2023-05-19T10:06:40.529Z,19.65
2023-05-19T10:09:10.628Z,19.10
2023-05-19T10:11:41.602Z,19.60
2023-05-19T10:14:12.746Z,18.92
2023-05-19T10:16:44.169Z,18.65
2023-05-19T10:19:15.611Z,17.50
2023-05-19T10:21:46.118Z,21.08
2023-05-19T10:24:16.100Z,22.08
2023-05-19T10:26:53.203Z,18.98
2023-05-19T10:29:29.016Z,18.25
2023-05-19T10:32:06.333Z,19.33
2023-05-19T10:35:13.142Z,15.90
2023-05-19T10:37:54.782Z,13.38
2023-05-19T10:40:40.432Z,14.00
2023-05-19T10:43:35.349Z,11.00
2023-05-19T10:46:07.515Z,9.82
2023-05-19T10:48:37.971Z,10.32
2023-05-19T10:51:13.281Z,9.57
2023-05-19T10:53:47.858Z,9.60
2023-05-19T10:56:36.046Z,10.45
2023-05-19T10:59:06.440Z,10.52
2023-05-19T11:01:39.433Z,9.73
2023-05-19T11:04:16.774Z,9.07
2023-05-19T11:06:52.946Z,9.75
2023-05-19T11:09:38.008Z,9.55
2023-05-19T11:12:11.946Z,9.07
2023-05-19T11:14:42.556Z,8.52
2023-05-19T11:17:17.071Z,9.48
2023-05-19T11:19:58.379Z,9.73
2023-05-19T11:22:29.605Z,10.57
2023-05-19T11:25:00.003Z,12.30
2023-05-19T11:27:34.552Z,11.88
2023-05-19T11:30:09.204Z,11.73
2023-05-19T11:32:48.467Z,12.70
2023-05-19T11:35:22.513Z,13.43
2023-05-19T11:37:56.056Z,14.40
2023-05-19T11:40:28.187Z,14.50
2023-05-19T11:42:58.408Z,14.52
2023-05-19T11:45:34.430Z,14.63
2023-05-19T11:48:04.968Z,13.52
2023-05-19T11:50:36.451Z,12.40
2023-05-19T11:53:06.765Z,10.50
2023-05-19T11:55:37.950Z,10.68
2023-05-19T11:58:07.917Z,9.23
2023-05-19T12:00:41.924Z,9.95
2023-05-19T12:03:12.043Z,8.88
2023-05-19T12:05:47.792Z,8.68
2023-05-19T12:08:21.216Z,8.07
2023-05-19T12:10:52.058Z,8.85
2023-05-19T12:13:23.837Z,7.75
2023-05-19T12:15:54.750Z,8.15
2023-05-19T12:18:24.766Z,6.93
2023-05-19T12:20:54.680Z,7.07
2023-05-19T12:23:26.198Z,7.30
2023-05-19T12:25:56.285Z,6.93
2023-05-19T12:28:26.747Z,7.45
2023-05-19T12:30:59.721Z,6.90
2023-05-19T12:33:30.122Z,7.82
2023-05-19T12:36:00.245Z,7.30
2023-05-19T12:38:30.854Z,7.50
2023-05-19T12:41:01.363Z,7.05
2023-05-19T12:43:31.884Z,6.75
2023-05-19T12:46:12.559Z,7.25
2023-05-19T12:48:47.001Z,6.90
2023-05-19T12:51:23.103Z,7.05
2023-05-19T12:53:53.728Z,7.22
2023-05-19T12:56:28.134Z,7.13
2023-05-19T12:58:58.617Z,6.88
2023-05-19T13:01:30.685Z,7.50
2023-05-19T13:04:03.997Z,7.75
2023-05-19T13:06:36.828Z,7.63
2023-05-19T13:09:08.370Z,8.45
2023-05-19T13:11:38.776Z,9.60
2023-05-19T13:14:08.735Z,8.25
2023-05-19T13:16:39.167Z,8.40
2023-05-19T13:19:23.894Z,7.85
2023-05-19T13:21:56.189Z,7.30
2023-05-19T13:24:26.498Z,7.75
2023-05-19T13:26:56.977Z,6.82
2023-05-19T13:29:26.969Z,7.75
2023-05-19T13:31:57.721Z,7.25
2023-05-19T13:36:58.656Z,9.23
2023-05-19T13:39:29.048Z,8.63
2023-05-19T13:42:00.568Z,9.77
2023-05-19T13:44:30.991Z,9.00
2023-05-19T13:47:00.857Z,9.32
2023-05-19T13:49:31.239Z,9.77
2023-05-19T13:52:01.165Z,10.75
2023-05-19T13:54:31.512Z,11.40
2023-05-19T13:57:01.915Z,11.82
2023-05-19T13:59:32.280Z,13.02
2023-05-19T14:02:03.962Z,13.25
2023-05-19T14:04:34.576Z,14.55
2023-05-19T14:07:04.540Z,14.40
2023-05-19T14:09:35.527Z,13.50
2023-05-19T14:12:07.133Z,13.48
2023-05-19T14:17:07.132Z,13.93
2023-05-19T14:19:43.264Z,13.63
2023-05-19T14:22:14.478Z,12.10
2023-05-19T14:24:44.516Z,11.55
2023-05-19T14:27:14.816Z,11.80
2023-05-19T14:29:45.020Z,10.00
2023-05-19T14:32:15.448Z,13.38
2023-05-19T14:34:45.502Z,12.32
2023-05-19T14:37:15.907Z,12.15
2023-05-19T14:39:45.944Z,12.57
2023-05-19T14:42:16.317Z,11.30
2023-05-19T14:44:46.377Z,11.95
2023-05-19T14:47:16.861Z,12.68
2023-05-19T14:49:46.973Z,11.05
2023-05-19T14:52:17.445Z,10.85
2023-05-19T14:54:47.446Z,11.63
2023-05-19T14:57:17.847Z,10.27
2023-05-19T14:59:47.847Z,9.57
2023-05-19T15:02:18.191Z,9.10
2023-05-19T15:04:48.246Z,8.27
2023-05-19T15:07:18.708Z,8.07
2023-05-19T15:09:48.751Z,8.40
2023-05-19T15:12:19.157Z,9.65
2023-05-19T15:14:49.512Z,10.18
2023-05-19T15:17:19.885Z,10.63
2023-05-19T15:19:49.936Z,9.52
2023-05-19T15:22:20.337Z,9.77
2023-05-19T15:24:50.407Z,8.80
2023-05-19T15:27:21.947Z,8.45
2023-05-19T15:29:52.057Z,8.70
2023-05-19T15:32:22.546Z,8.40
2023-05-19T15:34:52.656Z,9.05
2023-05-19T15:37:23.005Z,8.73
2023-05-19T15:39:53.067Z,9.43
2023-05-19T15:42:23.512Z,8.60
2023-05-19T15:44:53.582Z,8.38
2023-05-19T15:47:23.930Z,7.70
2023-05-19T15:49:53.958Z,7.60
2023-05-19T15:52:24.317Z,7.03
2023-05-19T15:54:56.284Z,7.57
2023-05-19T15:57:27.024Z,7.22
2023-05-19T15:59:57.015Z,7.28
2023-05-19T16:02:27.787Z,6.80
2023-05-19T16:04:57.855Z,6.80
2023-05-19T16:07:28.489Z,6.35
2023-05-19T16:09:58.601Z,8.13
2023-05-19T16:12:30.584Z,6.35
2023-05-19T16:15:00.635Z,5.35
2023-05-19T16:17:31.042Z,5.25
2023-05-19T16:20:01.820Z,5.85
2023-05-19T16:22:32.984Z,5.68
2023-05-19T16:25:02.988Z,5.20
2023-05-19T16:27:33.384Z,5.72
2023-05-19T16:30:04.360Z,5.30
2023-05-19T16:32:35.086Z,5.68
2023-05-19T16:35:05.234Z,6.28
2023-05-19T16:37:35.793Z,5.32
2023-05-19T16:40:06.158Z,6.13
2023-05-19T16:42:36.520Z,6.07
2023-05-19T16:45:06.995Z,7.70
2023-05-19T16:47:37.442Z,6.03
2023-05-19T16:50:08.042Z,7.05
2023-05-19T16:52:38.634Z,6.03
2023-05-19T16:57:40.483Z,6.60
2023-05-19T17:00:10.990Z,6.13
2023-05-19T17:02:44.322Z,6.88
2023-05-19T17:05:14.536Z,7.55
2023-05-19T17:07:44.954Z,7.43
2023-05-19T17:10:15.616Z,7.00
2023-05-19T17:12:46.111Z,7.28
2023-05-19T17:15:16.736Z,7.35
2023-05-19T17:17:47.153Z,7.85
2023-05-19T17:20:17.575Z,7.05
2023-05-19T17:22:47.931Z,6.18
2023-05-19T17:25:18.200Z,5.88
2023-05-19T17:27:48.580Z,5.95
2023-05-19T17:30:18.384Z,5.88
2023-05-19T17:32:49.251Z,6.05
2023-05-19T17:35:19.434Z,6.60
2023-05-19T17:37:49.876Z,5.28
2023-05-19T17:40:19.954Z,5.30
2023-05-19T17:42:50.377Z,4.80
2023-05-19T17:45:20.490Z,5.43
2023-05-19T17:47:50.837Z,6.07
2023-05-19T17:50:20.835Z,5.80
2023-05-19T17:52:51.425Z,5.47
2023-05-19T17:55:22.071Z,5.78
2023-05-19T17:57:52.685Z,5.28
2023-05-19T18:00:23.256Z,5.10
2023-05-19T18:02:54.117Z,5.25
2023-05-19T18:05:27.739Z,4.60
2023-05-19T18:07:58.857Z,4.63
2023-05-19T18:10:29.408Z,4.13
2023-05-19T18:12:59.751Z,4.43
2023-05-19T18:15:29.573Z,4.30
2023-05-19T18:18:00.170Z,4.63
2023-05-19T18:20:32.203Z,5.35
2023-05-19T18:23:03.793Z,4.97
2023-05-19T18:25:33.835Z,4.78
2023-05-19T18:28:03.564Z,5.00
2023-05-19T18:30:34.275Z,4.88
2023-05-19T18:33:05.032Z,4.63
2023-05-19T18:35:36.117Z,4.53
2023-05-19T18:38:06.158Z,4.78
2023-05-19T18:40:36.707Z,5.18
2023-05-19T18:43:06.821Z,4.93
2023-05-19T18:45:38.853Z,5.13
2023-05-19T18:48:09.239Z,5.57
2023-05-19T18:50:39.652Z,5.72
2023-05-19T18:53:09.645Z,5.45
2023-05-19T18:55:40.213Z,5.10
2023-05-19T18:58:10.317Z,4.85
2023-05-19T19:00:40.792Z,5.28
2023-05-19T19:03:12.778Z,4.97
2023-05-19T19:05:43.364Z,4.97
2023-05-19T19:08:13.922Z,5.28
2023-05-19T19:10:44.272Z,5.13
2023-05-19T19:13:14.636Z,5.07
2023-05-19T19:15:44.673Z,5.45
2023-05-19T19:18:15.158Z,5.15
2023-05-19T19:20:46.533Z,5.60
2023-05-19T19:23:17.551Z,5.13
2023-05-19T19:25:48.608Z,5.43
2023-05-19T19:28:18.973Z,5.65
2023-05-19T19:30:48.841Z,5.15
2023-05-19T19:33:19.244Z,5.30
2023-05-19T19:35:49.503Z,5.43
2023-05-19T19:38:19.907Z,6.55
2023-05-19T19:40:52.164Z,5.68
2023-05-19T19:43:22.552Z,6.05
2023-05-19T19:46:01.799Z,5.32
2023-05-19T19:48:32.402Z,5.78
2023-05-19T19:51:02.405Z,5.13
2023-05-19T19:53:34.759Z,5.65
2023-05-19T19:56:06.160Z,5.95
2023-05-19T19:58:36.547Z,5.38
2023-05-19T20:01:07.269Z,5.68
2023-05-19T20:03:37.871Z,5.57
2023-05-19T20:06:08.774Z,4.88
2023-05-19T20:08:39.167Z,5.35
2023-05-19T20:11:08.924Z,5.40
2023-05-19T20:13:39.280Z,5.85
2023-05-19T20:16:09.373Z,5.15
2023-05-19T20:18:40.609Z,5.55
2023-05-19T20:21:10.574Z,6.80
2023-05-19T20:23:41.779Z,8.30
2023-05-19T20:26:13.194Z,11.32
2023-05-19T20:28:44.137Z,10.77
2023-05-19T20:31:14.088Z,6.70
2023-05-19T20:33:44.509Z,5.70
2023-05-19T20:36:14.602Z,6.22
2023-05-19T20:38:44.961Z,6.00
2023-05-19T20:41:15.141Z,6.32
2023-05-19T20:43:45.628Z,6.55
2023-05-19T20:46:15.686Z,6.55
2023-05-19T20:48:46.102Z,6.72
2023-05-19T20:51:16.064Z,7.63
2023-05-19T20:53:46.617Z,7.75
2023-05-19T20:56:16.548Z,6.72
2023-05-19T20:58:47.125Z,7.00
2023-05-19T21:01:17.311Z,7.40
2023-05-19T21:03:47.794Z,7.40
2023-05-19T21:06:17.738Z,8.00
2023-05-19T21:08:48.048Z,6.32
2023-05-19T21:11:18.008Z,6.80
2023-05-19T21:13:48.378Z,7.55
2023-05-19T21:16:18.231Z,7.38
2023-05-19T21:18:48.809Z,8.18
2023-05-19T21:21:18.893Z,7.68
2023-05-19T21:23:49.553Z,10.95
2023-05-19T21:26:20.000Z,9.25
2023-05-19T21:28:50.681Z,8.63
2023-05-19T21:31:21.260Z,9.20
2023-05-19T21:33:52.176Z,8.85
2023-05-19T21:36:22.589Z,7.68
2023-05-19T21:38:53.647Z,7.72
2023-05-19T21:41:24.067Z,8.02
2023-05-19T21:43:54.657Z,7.68
2023-05-19T21:46:25.267Z,8.88
2023-05-19T21:48:56.289Z,7.60
2023-05-19T21:51:26.783Z,9.05
2023-05-19T21:53:57.900Z,9.98
2023-05-19T21:56:28.698Z,10.95
2023-05-19T21:58:59.582Z,12.00
2023-05-19T22:01:30.154Z,9.60
2023-05-19T22:04:04.136Z,9.43
2023-05-19T22:06:34.998Z,8.82
2023-05-19T22:09:08.636Z,9.73
2023-05-19T22:11:39.347Z,12.10
2023-05-19T22:14:11.840Z,15.30
2023-05-19T22:16:42.784Z,14.48
2023-05-19T22:19:14.125Z,16.33
2023-05-19T22:21:45.406Z,14.05
2023-05-19T22:24:17.543Z,11.68
2023-05-19T22:26:48.715Z,10.98
2023-05-19T22:29:20.796Z,14.00
2023-05-19T22:31:51.546Z,13.85
2023-05-19T22:34:24.001Z,10.93
2023-05-19T22:36:54.816Z,11.68
2023-05-19T22:39:25.995Z,13.38
2023-05-19T22:41:56.980Z,17.88
2023-05-19T22:44:29.351Z,19.98
2023-05-19T22:46:59.920Z,14.98
2023-05-19T22:49:32.783Z,13.60
2023-05-19T22:52:04.952Z,10.50
2023-05-19T22:54:36.201Z,10.85
2023-05-19T22:57:07.512Z,14.90
2023-05-19T22:59:41.458Z,15.07
2023-05-19T23:02:13.139Z,15.60
2023-05-19T23:04:44.683Z,15.10
2023-05-19T23:07:15.291Z,13.80
2023-05-19T23:09:46.205Z,12.73
2023-05-19T23:12:17.198Z,21.85
2023-05-19T23:14:48.977Z,13.75
2023-05-19T23:17:19.862Z,12.32
2023-05-19T23:19:51.529Z,12.85
2023-05-19T23:22:22.559Z,13.38
2023-05-19T23:24:53.649Z,11.20
2023-05-19T23:27:24.550Z,11.55
2023-05-19T23:29:55.946Z,13.30
2023-05-19T23:32:30.101Z,12.48
2023-05-19T23:35:18.429Z,11.82
2023-05-19T23:37:49.395Z,14.13
2023-05-19T23:40:22.971Z,12.95
2023-05-19T23:42:56.067Z,12.65
2023-05-19T23:45:28.458Z,20.52
2023-05-19T23:47:58.855Z,14.35
2023-05-19T23:50:29.550Z,11.75
2023-05-19T23:52:59.614Z,11.20
2023-05-19T23:55:30.127Z,12.15
2023-05-19T23:58:00.159Z,14.55
